createdAt,value
2019-04-04T00:01:51.096Z,34.98
2019-04-04T00:07:00.113Z,30.41
2019-04-04T00:12:09.208Z,27.79
2019-04-04T00:17:17.759Z,25.21
2019-04-04T00:22:26.552Z,23.48
2019-04-04T00:27:35.037Z,23.91
2019-04-04T00:32:43.440Z,21.30
2019-04-04T00:37:59.006Z,22.38
2019-04-04T00:42:59.841Z,21.17
2019-04-04T00:47:58.665Z,21.01
2019-04-04T00:53:07.301Z,22.86
2019-04-04T00:58:18.949Z,21.91
2019-04-04T01:03:15.097Z,19.49
2019-04-04T01:08:23.708Z,19.99
2019-04-04T01:13:32.082Z,17.58
2019-04-04T01:18:40.687Z,15.65
2019-04-04T01:23:49.138Z,14.44
2019-04-04T01:28:57.878Z,13.99
2019-04-04T01:34:06.349Z,13.91
2019-04-04T01:39:15.152Z,12.98
2019-04-04T01:44:23.548Z,14.04
2019-04-04T01:49:32.261Z,14.97
2019-04-04T01:54:40.858Z,14.17
2019-04-04T01:59:49.532Z,14.62
2019-04-04T02:04:57.903Z,14.92
2019-04-04T02:10:06.512Z,14.02
2019-04-04T02:15:15.025Z,16.73
2019-04-04T02:20:25.010Z,14.13
2019-04-04T02:25:32.056Z,15.73
2019-04-04T02:30:39.781Z,16.54
2019-04-04T02:35:48.724Z,16.31
2019-04-04T02:40:57.553Z,16.54
2019-04-04T02:46:10.980Z,17.46
2019-04-04T02:51:14.401Z,17.93
2019-04-04T02:56:22.879Z,18.23
2019-04-04T03:01:33.233Z,19.34
2019-04-04T03:06:40.241Z,17.46
2019-04-04T03:11:48.914Z,17.08
2019-04-04T03:16:57.921Z,18.15
2019-04-04T03:22:06.613Z,17.84
2019-04-04T03:27:15.239Z,19.17
2019-04-04T03:32:23.874Z,19.50
2019-04-04T03:37:32.217Z,19.30
2019-04-04T03:42:43.928Z,20.24
2019-04-04T03:47:48.709Z,19.21
2019-04-04T03:52:57.416Z,20.64
2019-04-04T03:58:05.823Z,19.52
2019-04-04T04:03:14.477Z,22.19
2019-04-04T04:08:23.010Z,21.86
2019-04-04T04:13:31.647Z,20.45
2019-04-04T04:18:40.165Z,18.36
2019-04-04T04:23:50.014Z,18.86
2019-04-04T04:28:56.491Z,21.06
2019-04-04T04:34:04.973Z,20.36
2019-04-04T04:39:13.485Z,20.64
2019-04-04T04:44:22.096Z,20.17
2019-04-04T04:49:30.505Z,20.46
2019-04-04T04:54:38.995Z,21.39
2019-04-04T04:59:47.580Z,22.67
2019-04-04T05:04:59.020Z,23.12
2019-04-04T05:10:03.901Z,24.94
2019-04-04T05:15:12.532Z,26.22
2019-04-04T05:20:20.877Z,26.00
2019-04-04T05:25:31.177Z,29.37
2019-04-04T05:30:37.219Z,26.95
2019-04-04T05:35:45.811Z,25.81
2019-04-04T05:40:55.427Z,29.49
2019-04-04T05:46:02.418Z,27.33
2019-04-04T05:51:11.103Z,27.00
2019-04-04T05:56:19.622Z,29.25
2019-04-04T06:01:28.551Z,29.53
2019-04-04T06:06:37.066Z,28.80
2019-04-04T06:11:48.366Z,29.13
2019-04-04T06:16:53.375Z,29.81
2019-04-04T06:22:02.007Z,30.49
2019-04-04T06:27:10.471Z,30.12
2019-04-04T06:32:19.093Z,30.32
2019-04-04T06:37:27.577Z,30.78
2019-04-04T06:42:37.102Z,29.32
2019-04-04T06:47:43.907Z,27.42
2019-04-04T06:52:52.491Z,26.35
2019-04-04T06:58:01.359Z,24.93
2019-04-04T07:03:09.784Z,22.77
2019-04-04T07:08:18.324Z,20.89
2019-04-04T07:13:27.877Z,22.68
2019-04-04T07:18:34.686Z,20.29
2019-04-04T07:23:43.205Z,20.80
2019-04-04T07:28:53.846Z,21.90
2019-04-04T07:33:59.509Z,18.09
2019-04-04T07:39:07.989Z,20.79
2019-04-04T07:44:16.430Z,19.74
2019-04-04T07:49:25.020Z,22.49
2019-04-04T07:54:33.555Z,23.06
2019-04-04T07:59:42.031Z,20.92
2019-04-04T08:04:50.338Z,19.97
2019-04-04T08:09:58.852Z,20.53
2019-04-04T08:15:07.260Z,17.60
2019-04-04T08:20:15.843Z,20.01
2019-04-04T08:25:24.288Z,19.08
2019-04-04T08:30:32.749Z,20.32
2019-04-04T08:35:42.063Z,21.72
2019-04-04T08:40:50.714Z,20.74
2019-04-04T08:45:59.331Z,19.67
2019-04-04T08:51:07.948Z,18.84
2019-04-04T08:56:16.638Z,19.57
2019-04-04T09:01:25.182Z,17.57
2019-04-04T09:06:33.628Z,17.94
2019-04-04T09:11:42.117Z,19.70
2019-04-04T09:16:50.632Z,23.74
2019-04-04T09:21:59.226Z,22.42
2019-04-04T09:27:08.043Z,21.62
2019-04-04T09:32:16.481Z,21.97
2019-04-04T09:37:24.985Z,21.92
2019-04-04T09:42:33.524Z,33.35
2019-04-04T09:47:41.966Z,20.89
2019-04-04T09:52:50.498Z,23.96
2019-04-04T09:57:59.026Z,25.45
2019-04-04T10:03:08.282Z,25.15
2019-04-04T10:08:17.645Z,22.95
2019-04-04T10:13:26.055Z,22.10
2019-04-04T10:18:34.503Z,21.61
2019-04-04T10:23:42.942Z,24.48
2019-04-04T10:28:51.403Z,22.23
2019-04-04T10:33:59.931Z,28.66
2019-04-04T10:39:08.446Z,24.61
2019-04-04T10:44:17.069Z,25.12
2019-04-04T10:49:25.566Z,21.08
2019-04-04T10:54:34.283Z,20.72
2019-04-04T10:59:42.585Z,24.92
2019-04-04T11:04:51.026Z,28.47
2019-04-04T11:09:59.778Z,23.26
2019-04-04T11:15:08.390Z,25.00
2019-04-04T11:20:17.045Z,23.06
2019-04-04T11:25:25.658Z,24.34
2019-04-04T11:30:34.118Z,24.01
2019-04-04T11:35:42.804Z,23.64
2019-04-04T11:40:51.480Z,21.79
2019-04-04T11:45:59.895Z,23.33
2019-04-04T11:51:08.371Z,22.88
2019-04-04T11:56:16.880Z,20.86
2019-04-04T12:01:25.668Z,23.54
2019-04-04T12:06:34.395Z,21.92
2019-04-04T12:11:42.714Z,23.04
2019-04-04T12:16:51.254Z,23.30
2019-04-04T12:21:59.726Z,21.45
2019-04-04T12:27:08.502Z,25.20
2019-04-04T12:32:17.153Z,23.86
2019-04-04T12:37:25.691Z,25.41
2019-04-04T12:42:34.144Z,27.98
2019-04-04T12:47:42.862Z,22.31
2019-04-04T12:52:51.493Z,22.46
2019-04-04T12:58:00.002Z,27.63
2019-04-04T13:03:08.461Z,25.39
2019-04-04T13:08:16.966Z,23.64
2019-04-04T13:13:25.404Z,28.06
2019-04-04T13:18:34.244Z,24.03
2019-04-04T13:23:42.617Z,24.57
2019-04-04T13:28:50.991Z,25.14
2019-04-04T13:33:59.397Z,24.25
2019-04-04T13:39:07.886Z,24.22
2019-04-04T13:44:18.471Z,26.82
2019-04-04T13:49:17.008Z,24.67
2019-04-04T13:54:25.591Z,27.24
2019-04-04T13:59:34.565Z,26.40
2019-04-04T14:04:43.023Z,25.65
2019-04-04T14:09:51.746Z,27.03
2019-04-04T14:15:00.866Z,24.33
2019-04-04T14:20:09.519Z,21.67
2019-04-04T14:25:19.109Z,18.79
2019-04-04T14:30:28.885Z,22.52
2019-04-04T14:35:37.249Z,20.70
2019-04-04T14:40:46.044Z,27.52
2019-04-04T14:45:54.966Z,23.85
2019-04-04T14:51:03.786Z,22.85
2019-04-04T14:56:12.990Z,25.32
2019-04-04T15:01:21.614Z,26.89
2019-04-04T15:06:29.889Z,25.90
2019-04-04T15:11:38.578Z,25.42
2019-04-04T15:16:46.839Z,27.25
2019-04-04T15:21:55.780Z,24.90
2019-04-04T15:27:04.173Z,24.94
2019-04-04T15:32:13.054Z,24.49
2019-04-04T15:33:24.225Z,26.49
2019-04-04T15:34:35.473Z,26.74
2019-04-04T15:35:49.753Z,27.25
2019-04-04T15:37:00.986Z,27.02
2019-04-04T15:38:12.577Z,27.97
2019-04-04T15:39:26.882Z,27.90
2019-04-04T15:40:41.469Z,28.27
2019-04-04T15:41:52.914Z,27.24
2019-04-04T15:46:51.681Z,24.47
2019-04-04T15:51:53.674Z,26.27
2019-04-04T15:54:02.554Z,8.46
2019-04-04T15:59:00.790Z,5.77
2019-04-04T16:04:09.041Z,4.67
2019-04-04T16:09:17.181Z,4.38
2019-04-04T16:14:25.231Z,5.53
2019-04-04T16:19:33.294Z,4.55
2019-04-04T16:24:41.482Z,5.27
2019-04-04T16:29:50.306Z,4.64
2019-04-04T16:34:58.410Z,4.56
2019-04-04T16:40:09.190Z,4.31
2019-04-04T16:40:20.290Z,8.87
2019-04-04T16:41:24.449Z,3.12
2019-04-04T16:42:28.511Z,4.76
2019-04-04T16:43:32.687Z,11.32
2019-04-04T16:44:37.303Z,3.14
2019-04-04T16:45:42.172Z,4.39
2019-04-04T16:46:46.240Z,2.98
2019-04-04T16:47:51.006Z,16.49
2019-04-04T16:48:55.021Z,3.91
2019-04-04T16:54:53.761Z,6.11
2019-04-04T17:00:01.273Z,9.10
2019-04-04T17:05:11.169Z,4.01
2019-04-04T17:10:17.731Z,3.97
2019-04-04T17:52:58.383Z,15.26
2019-04-04T17:57:56.653Z,6.48
2019-04-04T17:58:11.538Z,4.51
2019-04-04T17:59:14.505Z,11.35
2019-04-04T18:00:18.613Z,3.81
2019-04-04T18:01:22.774Z,3.30
2019-04-04T18:02:27.214Z,5.29
2019-04-04T18:03:31.471Z,5.21
2019-04-04T18:04:47.551Z,6.68
2019-04-04T18:05:39.030Z,4.62
2019-04-04T18:11:37.344Z,4.67
2019-04-04T18:16:46.549Z,4.66
2019-04-04T18:21:55.111Z,4.45
2019-04-04T18:22:10.061Z,4.73
2019-04-04T18:23:15.243Z,4.51
2019-04-04T18:24:18.177Z,6.17
2019-04-04T18:25:22.354Z,3.94
2019-04-04T18:26:28.067Z,7.00
2019-04-04T18:27:33.018Z,4.71
2019-04-04T18:28:39.356Z,3.96
2019-04-04T18:29:40.930Z,4.83
2019-04-04T18:30:44.965Z,4.31
2019-04-04T18:31:49.105Z,3.50
2019-04-04T18:32:53.818Z,4.71
2019-04-04T18:33:58.799Z,5.22
2019-04-04T18:35:01.772Z,3.38
2019-04-04T18:36:06.061Z,5.26
2019-04-04T18:37:51.164Z,4.53
2019-04-04T18:38:06.118Z,3.60
2019-04-04T18:39:10.421Z,4.94
2019-04-04T18:40:14.737Z,3.20
2019-04-04T18:41:19.617Z,4.56
2019-04-04T18:42:23.889Z,3.80
2019-04-04T18:43:29.238Z,2.98
2019-04-04T18:44:34.032Z,7.42
2019-04-04T18:45:38.921Z,3.94
2019-04-04T18:46:43.245Z,3.20
2019-04-04T18:47:47.540Z,3.78
2019-04-04T18:48:52.597Z,4.22
2019-04-04T18:49:57.014Z,3.42
2019-04-04T18:51:01.413Z,4.02
2019-04-04T18:52:06.227Z,3.70
2019-04-04T18:53:10.458Z,3.46
2019-04-04T18:54:15.190Z,3.66
2019-04-04T18:55:20.369Z,3.82
2019-04-04T19:32:58.988Z,6.24
2019-04-04T19:33:39.809Z,3.83
2019-04-04T19:34:23.017Z,4.01
2019-04-04T19:49:28.890Z,4.12
2019-04-04T19:50:19.817Z,2.84
2019-04-04T19:53:35.275Z,46.26
2019-04-04T19:59:23.901Z,20.98
2019-04-04T20:04:32.277Z,21.12
2019-04-04T20:09:40.703Z,21.42
2019-04-04T20:14:48.998Z,20.43
2019-04-04T20:19:57.395Z,23.07
2019-04-04T20:25:06.233Z,21.75
2019-04-04T20:30:15.207Z,23.71
2019-04-04T20:35:26.712Z,22.23
2019-04-04T20:40:31.618Z,23.85
2019-04-04T20:45:40.245Z,24.20
2019-04-04T20:50:49.439Z,23.92
2019-04-04T20:55:58.285Z,27.49
2019-04-04T21:01:07.018Z,25.87
2019-04-04T21:06:15.421Z,27.24
2019-04-04T21:11:23.858Z,27.15
2019-04-04T21:16:32.217Z,26.36
2019-04-04T21:21:40.739Z,27.25
2019-04-04T21:26:49.105Z,28.27
2019-04-04T21:31:57.737Z,30.32
2019-04-04T21:37:06.242Z,29.62
2019-04-04T21:42:14.439Z,29.47
2019-04-04T21:47:23.503Z,31.60
2019-04-04T21:52:31.915Z,33.33
2019-04-04T21:57:40.294Z,34.27
2019-04-04T22:02:48.567Z,28.43
2019-04-04T22:07:57.061Z,28.92
2019-04-04T22:13:05.287Z,26.71
2019-04-04T22:18:13.606Z,27.22
2019-04-04T22:23:21.970Z,26.19
2019-04-04T22:28:30.569Z,27.34
2019-04-04T22:33:39.168Z,27.11
2019-04-04T22:38:47.561Z,31.91
2019-04-04T22:44:03.329Z,32.38
2019-04-04T22:49:03.526Z,36.01
2019-04-04T22:54:11.921Z,36.65
2019-04-04T22:59:20.210Z,38.10
2019-04-04T23:04:28.567Z,42.24
2019-04-04T23:09:36.825Z,41.75
2019-04-04T23:14:48.416Z,45.37
2019-04-04T23:19:53.149Z,44.62
2019-04-04T23:25:01.480Z,47.47
2019-04-04T23:30:09.712Z,47.77
2019-04-04T23:35:18.110Z,50.88
2019-04-04T23:40:26.456Z,50.92
2019-04-04T23:45:35.102Z,51.63
2019-04-04T23:50:43.367Z,51.98
2019-04-04T23:55:51.735Z,57.52
